sensor_id;sensor_type;location;lat;lon;timestamp;temperature;humidity
55211;DHT22;41082;52.822;6.666;2023-09-19T00:01:42;15.80;99.90
55211;DHT22;41082;52.822;6.666;2023-09-19T00:04:10;15.80;99.90
55211;DHT22;41082;52.822;6.666;2023-09-19T00:06:36;15.80;99.90
55211;DHT22;41082;52.822;6.666;2023-09-19T00:09:03;15.70;99.90
55211;DHT22;41082;52.822;6.666;2023-09-19T00:11:29;15.60;99.90
55211;DHT22;41082;52.822;6.666;2023-09-19T00:13:54;15.60;99.90
55211;DHT22;41082;52.822;6.666;2023-09-19T00:16:20;15.60;99.90
55211;DHT22;41082;52.822;6.666;2023-09-19T00:18:46;15.50;99.90
55211;DHT22;41082;52.822;6.666;2023-09-19T00:21:12;15.50;99.90
55211;DHT22;41082;52.822;6.666;2023-09-19T00:23:38;15.40;99.90
55211;DHT22;41082;52.822;6.666;2023-09-19T00:26:06;15.40;99.90
55211;DHT22;41082;52.822;6.666;2023-09-19T00:28:32;15.40;99.90
55211;DHT22;41082;52.822;6.666;2023-09-19T00:30:57;15.40;99.90
55211;DHT22;41082;52.822;6.666;2023-09-19T00:33:26;15.30;99.90
55211;DHT22;41082;52.822;6.666;2023-09-19T00:35:53;15.30;99.90
55211;DHT22;41082;52.822;6.666;2023-09-19T00:38:19;15.30;99.90
55211;DHT22;41082;52.822;6.666;2023-09-19T00:40:52;15.30;99.90
55211;DHT22;41082;52.822;6.666;2023-09-19T00:43:18;15.20;99.90
55211;DHT22;41082;52.822;6.666;2023-09-19T00:45:46;15.20;99.90
55211;DHT22;41082;52.822;6.666;2023-09-19T00:48:14;15.20;99.90
55211;DHT22;41082;52.822;6.666;2023-09-19T00:50:42;15.10;99.90
55211;DHT22;41082;52.822;6.666;2023-09-19T00:53:08;15.10;99.90
55211;DHT22;41082;52.822;6.666;2023-09-19T00:55:38;15.10;99.90
55211;DHT22;41082;52.822;6.666;2023-09-19T00:58:05;15.10;99.90
55211;DHT22;41082;52.822;6.666;2023-09-19T01:00:33;15.00;99.90
55211;DHT22;41082;52.822;6.666;2023-09-19T01:03:00;15.10;99.90
55211;DHT22;41082;52.822;6.666;2023-09-19T01:05:27;15.00;99.90
55211;DHT22;41082;52.822;6.666;2023-09-19T01:07:53;15.00;99.90
55211;DHT22;41082;52.822;6.666;2023-09-19T01:10:20;15.00;99.90
55211;DHT22;41082;52.822;6.666;2023-09-19T01:20:57;15.00;99.90
55211;DHT22;41082;52.822;6.666;2023-09-19T01:26:30;14.90;99.90
55211;DHT22;41082;52.822;6.666;2023-09-19T01:31:59;14.90;99.90
55211;DHT22;41082;52.822;6.666;2023-09-19T01:34:27;14.90;99.90
55211;DHT22;41082;52.822;6.666;2023-09-19T01:36:52;14.90;99.90
55211;DHT22;41082;52.822;6.666;2023-09-19T01:39:18;14.90;99.90
55211;DHT22;41082;52.822;6.666;2023-09-19T01:41:54;14.90;99.90
55211;DHT22;41082;52.822;6.666;2023-09-19T01:47:32;14.80;99.90
55211;DHT22;41082;52.822;6.666;2023-09-19T01:52:45;14.80;99.90
55211;DHT22;41082;52.822;6.666;2023-09-19T01:55:14;14.80;99.90
55211;DHT22;41082;52.822;6.666;2023-09-19T01:58:01;14.80;99.90
55211;DHT22;41082;52.822;6.666;2023-09-19T02:00:27;14.80;99.90
55211;DHT22;41082;52.822;6.666;2023-09-19T02:02:55;14.70;99.90
55211;DHT22;41082;52.822;6.666;2023-09-19T02:05:24;14.70;99.90
55211;DHT22;41082;52.822;6.666;2023-09-19T02:07:50;14.70;99.90
55211;DHT22;41082;52.822;6.666;2023-09-19T02:10:16;14.70;99.90
55211;DHT22;41082;52.822;6.666;2023-09-19T02:12:42;14.70;99.90
55211;DHT22;41082;52.822;6.666;2023-09-19T02:15:08;14.70;99.90
55211;DHT22;41082;52.822;6.666;2023-09-19T02:17:34;14.70;99.90
55211;DHT22;41082;52.822;6.666;2023-09-19T02:20:00;14.60;99.90
55211;DHT22;41082;52.822;6.666;2023-09-19T02:22:26;14.60;99.90
55211;DHT22;41082;52.822;6.666;2023-09-19T02:24:52;14.60;99.90
55211;DHT22;41082;52.822;6.666;2023-09-19T02:27:19;14.60;99.90
55211;DHT22;41082;52.822;6.666;2023-09-19T02:29:44;14.60;99.90
55211;DHT22;41082;52.822;6.666;2023-09-19T02:32:10;14.60;99.90
55211;DHT22;41082;52.822;6.666;2023-09-19T02:34:36;14.60;99.90
55211;DHT22;41082;52.822;6.666;2023-09-19T02:37:05;14.60;99.90
55211;DHT22;41082;52.822;6.666;2023-09-19T02:39:32;14.50;99.90
55211;DHT22;41082;52.822;6.666;2023-09-19T02:41:57;14.50;99.90
55211;DHT22;41082;52.822;6.666;2023-09-19T02:44:23;14.50;99.90
55211;DHT22;41082;52.822;6.666;2023-09-19T02:46:49;14.50;99.90
55211;DHT22;41082;52.822;6.666;2023-09-19T02:49:15;14.50;99.90
55211;DHT22;41082;52.822;6.666;2023-09-19T02:51:41;14.50;99.90
55211;DHT22;41082;52.822;6.666;2023-09-19T02:54:07;14.40;99.90
55211;DHT22;41082;52.822;6.666;2023-09-19T02:56:32;14.40;99.90
55211;DHT22;41082;52.822;6.666;2023-09-19T02:58:58;14.40;99.90
55211;DHT22;41082;52.822;6.666;2023-09-19T03:01:26;14.40;99.90
55211;DHT22;41082;52.822;6.666;2023-09-19T03:03:52;14.40;99.90
55211;DHT22;41082;52.822;6.666;2023-09-19T03:06:19;14.40;99.90
55211;DHT22;41082;52.822;6.666;2023-09-19T03:08:45;14.30;99.90
55211;DHT22;41082;52.822;6.666;2023-09-19T03:11:12;14.40;99.90
55211;DHT22;41082;52.822;6.666;2023-09-19T03:13:40;14.30;99.90
55211;DHT22;41082;52.822;6.666;2023-09-19T03:16:06;14.30;99.90
55211;DHT22;41082;52.822;6.666;2023-09-19T03:18:34;14.30;99.90
55211;DHT22;41082;52.822;6.666;2023-09-19T03:21:00;14.30;99.90
55211;DHT22;41082;52.822;6.666;2023-09-19T03:23:26;14.20;99.90
55211;DHT22;41082;52.822;6.666;2023-09-19T03:25:52;14.30;99.90
55211;DHT22;41082;52.822;6.666;2023-09-19T03:28:18;14.20;99.90
55211;DHT22;41082;52.822;6.666;2023-09-19T03:30:44;14.20;99.90
55211;DHT22;41082;52.822;6.666;2023-09-19T03:33:09;14.20;99.90
55211;DHT22;41082;52.822;6.666;2023-09-19T03:35:37;14.20;99.90
55211;DHT22;41082;52.822;6.666;2023-09-19T03:38:04;14.20;99.90
55211;DHT22;41082;52.822;6.666;2023-09-19T03:40:30;14.20;99.90
55211;DHT22;41082;52.822;6.666;2023-09-19T03:42:55;14.20;99.90
55211;DHT22;41082;52.822;6.666;2023-09-19T03:45:21;14.20;99.90
55211;DHT22;41082;52.822;6.666;2023-09-19T03:47:46;14.20;99.90
55211;DHT22;41082;52.822;6.666;2023-09-19T03:50:15;14.20;99.90
55211;DHT22;41082;52.822;6.666;2023-09-19T03:52:43;14.20;99.90
55211;DHT22;41082;52.822;6.666;2023-09-19T03:55:09;14.20;99.90
55211;DHT22;41082;52.822;6.666;2023-09-19T03:57:35;14.30;99.90
55211;DHT22;41082;52.822;6.666;2023-09-19T04:00:02;14.30;99.90
55211;DHT22;41082;52.822;6.666;2023-09-19T04:02:28;14.20;99.90
55211;DHT22;41082;52.822;6.666;2023-09-19T04:04:58;14.20;99.90
55211;DHT22;41082;52.822;6.666;2023-09-19T04:07:24;14.20;99.90
55211;DHT22;41082;52.822;6.666;2023-09-19T04:09:51;14.20;99.90
55211;DHT22;41082;52.822;6.666;2023-09-19T04:12:19;14.20;99.90
55211;DHT22;41082;52.822;6.666;2023-09-19T04:14:44;14.30;99.90
55211;DHT22;41082;52.822;6.666;2023-09-19T04:17:10;14.30;99.90
55211;DHT22;41082;52.822;6.666;2023-09-19T04:19:36;14.30;99.90
55211;DHT22;41082;52.822;6.666;2023-09-19T04:22:02;14.30;99.90
55211;DHT22;41082;52.822;6.666;2023-09-19T04:24:29;14.30;99.90
55211;DHT22;41082;52.822;6.666;2023-09-19T04:26:55;14.30;99.90
55211;DHT22;41082;52.822;6.666;2023-09-19T04:29:20;14.30;99.90
55211;DHT22;41082;52.822;6.666;2023-09-19T04:31:46;14.30;99.90
55211;DHT22;41082;52.822;6.666;2023-09-19T04:34:12;14.30;99.90
55211;DHT22;41082;52.822;6.666;2023-09-19T04:36:41;14.30;99.90
55211;DHT22;41082;52.822;6.666;2023-09-19T04:39:07;14.30;99.90
55211;DHT22;41082;52.822;6.666;2023-09-19T04:41:33;14.30;99.90
55211;DHT22;41082;52.822;6.666;2023-09-19T04:43:59;14.30;99.90
55211;DHT22;41082;52.822;6.666;2023-09-19T04:46:25;14.30;99.90
55211;DHT22;41082;52.822;6.666;2023-09-19T04:48:51;14.30;99.90
55211;DHT22;41082;52.822;6.666;2023-09-19T04:51:16;14.30;99.90
55211;DHT22;41082;52.822;6.666;2023-09-19T04:53:44;14.30;99.90
55211;DHT22;41082;52.822;6.666;2023-09-19T04:56:09;14.40;99.90
55211;DHT22;41082;52.822;6.666;2023-09-19T04:58:35;14.30;99.90
55211;DHT22;41082;52.822;6.666;2023-09-19T05:01:00;14.30;99.90
55211;DHT22;41082;52.822;6.666;2023-09-19T05:03:27;14.40;99.90
55211;DHT22;41082;52.822;6.666;2023-09-19T05:05:53;14.40;99.90
55211;DHT22;41082;52.822;6.666;2023-09-19T05:08:19;14.30;99.90
55211;DHT22;41082;52.822;6.666;2023-09-19T05:10:45;14.30;99.90
55211;DHT22;41082;52.822;6.666;2023-09-19T05:13:11;14.40;99.90
55211;DHT22;41082;52.822;6.666;2023-09-19T05:15:37;14.30;99.90
55211;DHT22;41082;52.822;6.666;2023-09-19T05:18:03;14.30;99.90
55211;DHT22;41082;52.822;6.666;2023-09-19T05:20:29;14.30;99.90
55211;DHT22;41082;52.822;6.666;2023-09-19T05:25:30;14.30;99.90
55211;DHT22;41082;52.822;6.666;2023-09-19T05:27:57;14.30;99.90
55211;DHT22;41082;52.822;6.666;2023-09-19T05:30:24;14.30;99.90
55211;DHT22;41082;52.822;6.666;2023-09-19T05:32:50;14.30;99.90
55211;DHT22;41082;52.822;6.666;2023-09-19T05:35:17;14.20;99.90
55211;DHT22;41082;52.822;6.666;2023-09-19T05:37:42;14.20;99.90
55211;DHT22;41082;52.822;6.666;2023-09-19T05:40:08;14.20;99.90
55211;DHT22;41082;52.822;6.666;2023-09-19T05:42:38;14.20;99.90
55211;DHT22;41082;52.822;6.666;2023-09-19T05:45:05;14.20;99.90
55211;DHT22;41082;52.822;6.666;2023-09-19T05:47:32;14.20;99.90
55211;DHT22;41082;52.822;6.666;2023-09-19T05:49:57;14.20;99.90
55211;DHT22;41082;52.822;6.666;2023-09-19T05:52:24;14.20;99.90
55211;DHT22;41082;52.822;6.666;2023-09-19T05:54:50;14.10;99.90
55211;DHT22;41082;52.822;6.666;2023-09-19T05:57:16;14.10;99.90
55211;DHT22;41082;52.822;6.666;2023-09-19T05:59:42;14.10;99.90
55211;DHT22;41082;52.822;6.666;2023-09-19T06:02:08;14.10;99.90
55211;DHT22;41082;52.822;6.666;2023-09-19T06:04:35;14.10;99.90
55211;DHT22;41082;52.822;6.666;2023-09-19T06:07:00;14.00;99.90
55211;DHT22;41082;52.822;6.666;2023-09-19T06:09:31;14.10;99.90
55211;DHT22;41082;52.822;6.666;2023-09-19T06:11:58;14.10;99.90
55211;DHT22;41082;52.822;6.666;2023-09-19T06:14:25;14.10;99.90
55211;DHT22;41082;52.822;6.666;2023-09-19T06:16:51;14.10;99.90
55211;DHT22;41082;52.822;6.666;2023-09-19T06:19:20;14.10;99.90
55211;DHT22;41082;52.822;6.666;2023-09-19T06:21:49;14.20;99.90
55211;DHT22;41082;52.822;6.666;2023-09-19T06:24:14;14.20;99.90
55211;DHT22;41082;52.822;6.666;2023-09-19T06:26:40;14.30;99.90
55211;DHT22;41082;52.822;6.666;2023-09-19T06:29:06;14.30;99.90
55211;DHT22;41082;52.822;6.666;2023-09-19T06:31:33;14.30;99.90
55211;DHT22;41082;52.822;6.666;2023-09-19T06:33:59;14.30;99.90
55211;DHT22;41082;52.822;6.666;2023-09-19T06:36:25;14.30;99.90
55211;DHT22;41082;52.822;6.666;2023-09-19T06:38:50;14.30;99.90
55211;DHT22;41082;52.822;6.666;2023-09-19T06:41:18;14.30;99.90
55211;DHT22;41082;52.822;6.666;2023-09-19T06:43:44;14.30;99.90
55211;DHT22;41082;52.822;6.666;2023-09-19T06:46:10;14.30;99.90
55211;DHT22;41082;52.822;6.666;2023-09-19T06:48:36;14.30;99.90
55211;DHT22;41082;52.822;6.666;2023-09-19T06:51:02;14.30;99.90
55211;DHT22;41082;52.822;6.666;2023-09-19T06:53:34;14.30;99.90
55211;DHT22;41082;52.822;6.666;2023-09-19T06:56:01;14.30;99.90
55211;DHT22;41082;52.822;6.666;2023-09-19T06:58:27;14.30;99.90
55211;DHT22;41082;52.822;6.666;2023-09-19T07:00:53;14.30;99.90
55211;DHT22;41082;52.822;6.666;2023-09-19T07:03:20;14.30;99.90
55211;DHT22;41082;52.822;6.666;2023-09-19T07:05:48;14.30;99.90
55211;DHT22;41082;52.822;6.666;2023-09-19T07:08:14;14.30;99.90
55211;DHT22;41082;52.822;6.666;2023-09-19T07:10:41;14.40;99.90
55211;DHT22;41082;52.822;6.666;2023-09-19T07:13:14;14.40;99.90
55211;DHT22;41082;52.822;6.666;2023-09-19T07:15:42;14.50;99.90
55211;DHT22;41082;52.822;6.666;2023-09-19T07:18:16;14.60;99.90
55211;DHT22;41082;52.822;6.666;2023-09-19T07:20:43;14.60;99.90
55211;DHT22;41082;52.822;6.666;2023-09-19T07:23:11;14.70;99.90
55211;DHT22;41082;52.822;6.666;2023-09-19T07:25:39;14.80;99.90
55211;DHT22;41082;52.822;6.666;2023-09-19T07:28:05;14.80;99.90
55211;DHT22;41082;52.822;6.666;2023-09-19T07:30:31;14.80;99.90
55211;DHT22;41082;52.822;6.666;2023-09-19T07:32:57;14.90;99.90
55211;DHT22;41082;52.822;6.666;2023-09-19T07:35:22;15.00;99.90
55211;DHT22;41082;52.822;6.666;2023-09-19T07:37:49;15.00;99.90
55211;DHT22;41082;52.822;6.666;2023-09-19T07:40:15;15.00;99.90
55211;DHT22;41082;52.822;6.666;2023-09-19T07:42:41;15.10;99.90
55211;DHT22;41082;52.822;6.666;2023-09-19T07:45:09;15.10;99.90
55211;DHT22;41082;52.822;6.666;2023-09-19T07:47:35;15.10;99.90
55211;DHT22;41082;52.822;6.666;2023-09-19T07:50:02;15.10;99.90
55211;DHT22;41082;52.822;6.666;2023-09-19T07:52:29;15.20;99.90
55211;DHT22;41082;52.822;6.666;2023-09-19T07:54:55;15.30;99.90
55211;DHT22;41082;52.822;6.666;2023-09-19T07:57:22;15.30;99.90
55211;DHT22;41082;52.822;6.666;2023-09-19T07:59:48;15.30;99.90
55211;DHT22;41082;52.822;6.666;2023-09-19T08:02:14;15.40;99.90
55211;DHT22;41082;52.822;6.666;2023-09-19T08:04:45;15.40;99.90
55211;DHT22;41082;52.822;6.666;2023-09-19T08:07:12;15.50;99.90
55211;DHT22;41082;52.822;6.666;2023-09-19T08:09:39;15.60;99.90
55211;DHT22;41082;52.822;6.666;2023-09-19T08:12:08;15.60;99.90
55211;DHT22;41082;52.822;6.666;2023-09-19T08:14:36;15.70;99.90
55211;DHT22;41082;52.822;6.666;2023-09-19T08:17:02;15.70;99.90
55211;DHT22;41082;52.822;6.666;2023-09-19T08:19:28;15.80;99.90
55211;DHT22;41082;52.822;6.666;2023-09-19T08:21:57;15.80;99.90
55211;DHT22;41082;52.822;6.666;2023-09-19T08:24:30;15.90;99.90
55211;DHT22;41082;52.822;6.666;2023-09-19T08:26:56;15.90;99.90
55211;DHT22;41082;52.822;6.666;2023-09-19T08:29:23;15.90;99.90
55211;DHT22;41082;52.822;6.666;2023-09-19T08:31:59;15.90;99.90
55211;DHT22;41082;52.822;6.666;2023-09-19T08:34:25;16.00;99.90
55211;DHT22;41082;52.822;6.666;2023-09-19T08:36:55;15.90;99.90
55211;DHT22;41082;52.822;6.666;2023-09-19T08:39:24;15.90;99.90
55211;DHT22;41082;52.822;6.666;2023-09-19T08:41:56;16.00;99.90
55211;DHT22;41082;52.822;6.666;2023-09-19T08:44:22;16.00;99.90
55211;DHT22;41082;52.822;6.666;2023-09-19T08:46:48;16.10;99.90
55211;DHT22;41082;52.822;6.666;2023-09-19T08:52:30;16.20;99.90
55211;DHT22;41082;52.822;6.666;2023-09-19T08:55:00;16.30;99.90
55211;DHT22;41082;52.822;6.666;2023-09-19T08:57:33;16.40;99.90
55211;DHT22;41082;52.822;6.666;2023-09-19T09:00:02;16.40;99.90
55211;DHT22;41082;52.822;6.666;2023-09-19T09:02:39;16.50;99.90
55211;DHT22;41082;52.822;6.666;2023-09-19T09:05:07;16.60;99.90
55211;DHT22;41082;52.822;6.666;2023-09-19T09:07:36;16.60;99.90
55211;DHT22;41082;52.822;6.666;2023-09-19T09:10:03;16.70;99.90
55211;DHT22;41082;52.822;6.666;2023-09-19T09:12:30;16.80;99.90
55211;DHT22;41082;52.822;6.666;2023-09-19T09:14:56;16.80;99.90
55211;DHT22;41082;52.822;6.666;2023-09-19T09:17:23;17.00;99.90
55211;DHT22;41082;52.822;6.666;2023-09-19T09:19:52;17.10;99.90
55211;DHT22;41082;52.822;6.666;2023-09-19T09:22:18;17.20;99.90
55211;DHT22;41082;52.822;6.666;2023-09-19T09:24:57;17.30;99.90
55211;DHT22;41082;52.822;6.666;2023-09-19T09:27:30;17.40;99.90
55211;DHT22;41082;52.822;6.666;2023-09-19T09:29:58;17.50;99.90
55211;DHT22;41082;52.822;6.666;2023-09-19T09:32:26;17.60;99.90
55211;DHT22;41082;52.822;6.666;2023-09-19T09:34:56;17.60;99.90
55211;DHT22;41082;52.822;6.666;2023-09-19T09:37:22;17.70;99.90
55211;DHT22;41082;52.822;6.666;2023-09-19T09:40:00;17.80;99.90
55211;DHT22;41082;52.822;6.666;2023-09-19T09:42:41;17.90;99.90
55211;DHT22;41082;52.822;6.666;2023-09-19T09:45:19;18.00;99.90
55211;DHT22;41082;52.822;6.666;2023-09-19T09:48:02;18.10;99.90
55211;DHT22;41082;52.822;6.666;2023-09-19T09:50:36;18.10;99.90
55211;DHT22;41082;52.822;6.666;2023-09-19T09:53:27;18.20;99.90
55211;DHT22;41082;52.822;6.666;2023-09-19T09:56:08;18.20;99.90
55211;DHT22;41082;52.822;6.666;2023-09-19T10:01:13;18.50;99.90
55211;DHT22;41082;52.822;6.666;2023-09-19T10:03:42;18.50;99.90
55211;DHT22;41082;52.822;6.666;2023-09-19T10:06:15;18.60;99.90
55211;DHT22;41082;52.822;6.666;2023-09-19T10:09:09;18.70;99.90
55211;DHT22;41082;52.822;6.666;2023-09-19T10:11:37;18.70;99.90
55211;DHT22;41082;52.822;6.666;2023-09-19T10:14:06;18.80;99.90
55211;DHT22;41082;52.822;6.666;2023-09-19T10:16:34;18.80;99.90
55211;DHT22;41082;52.822;6.666;2023-09-19T10:19:02;18.90;99.90
55211;DHT22;41082;52.822;6.666;2023-09-19T10:21:30;18.90;99.90
55211;DHT22;41082;52.822;6.666;2023-09-19T10:23:58;18.90;99.90
55211;DHT22;41082;52.822;6.666;2023-09-19T10:26:27;18.90;99.90
55211;DHT22;41082;52.822;6.666;2023-09-19T10:28:57;18.90;99.90
55211;DHT22;41082;52.822;6.666;2023-09-19T10:31:26;18.90;99.90
55211;DHT22;41082;52.822;6.666;2023-09-19T10:33:53;18.90;99.90
55211;DHT22;41082;52.822;6.666;2023-09-19T10:36:23;18.90;99.90
55211;DHT22;41082;52.822;6.666;2023-09-19T10:38:52;18.80;99.90
55211;DHT22;41082;52.822;6.666;2023-09-19T10:41:22;18.90;99.90
55211;DHT22;41082;52.822;6.666;2023-09-19T10:43:48;18.90;99.90
55211;DHT22;41082;52.822;6.666;2023-09-19T10:46:14;18.90;99.90
55211;DHT22;41082;52.822;6.666;2023-09-19T10:48:41;18.90;99.90
55211;DHT22;41082;52.822;6.666;2023-09-19T10:51:30;18.90;99.90
55211;DHT22;41082;52.822;6.666;2023-09-19T10:54:17;19.00;99.90
55211;DHT22;41082;52.822;6.666;2023-09-19T10:56:47;19.10;99.90
55211;DHT22;41082;52.822;6.666;2023-09-19T10:59:18;19.10;99.90
55211;DHT22;41082;52.822;6.666;2023-09-19T11:01:48;19.10;99.90
55211;DHT22;41082;52.822;6.666;2023-09-19T11:04:32;19.20;99.90
55211;DHT22;41082;52.822;6.666;2023-09-19T11:09:47;19.20;99.90
55211;DHT22;41082;52.822;6.666;2023-09-19T11:14:59;19.20;99.90
55211;DHT22;41082;52.822;6.666;2023-09-19T11:30:32;19.50;99.90
55211;DHT22;41082;52.822;6.666;2023-09-19T11:33:29;19.50;99.90
55211;DHT22;41082;52.822;6.666;2023-09-19T11:36:13;19.50;99.90
55211;DHT22;41082;52.822;6.666;2023-09-19T11:46:17;19.70;99.90
55211;DHT22;41082;52.822;6.666;2023-09-19T11:48:53;19.70;99.90
55211;DHT22;41082;52.822;6.666;2023-09-19T11:51:20;19.70;99.90
55211;DHT22;41082;52.822;6.666;2023-09-19T11:53:57;19.60;99.90
55211;DHT22;41082;52.822;6.666;2023-09-19T11:56:27;19.60;99.90
55211;DHT22;41082;52.822;6.666;2023-09-19T11:58:57;19.70;99.90
55211;DHT22;41082;52.822;6.666;2023-09-19T12:01:29;19.70;99.90
55211;DHT22;41082;52.822;6.666;2023-09-19T12:03:57;19.70;99.90
55211;DHT22;41082;52.822;6.666;2023-09-19T12:06:25;19.60;99.90
55211;DHT22;41082;52.822;6.666;2023-09-19T12:08:51;19.60;99.90
55211;DHT22;41082;52.822;6.666;2023-09-19T12:11:21;19.60;99.90
55211;DHT22;41082;52.822;6.666;2023-09-19T12:13:49;19.60;99.90
55211;DHT22;41082;52.822;6.666;2023-09-19T12:16:16;19.60;99.90
55211;DHT22;41082;52.822;6.666;2023-09-19T12:18:45;19.70;99.90
55211;DHT22;41082;52.822;6.666;2023-09-19T12:21:26;19.70;99.90
55211;DHT22;41082;52.822;6.666;2023-09-19T12:26:42;19.60;99.90
55211;DHT22;41082;52.822;6.666;2023-09-19T12:29:16;19.60;99.90
55211;DHT22;41082;52.822;6.666;2023-09-19T12:31:54;19.50;99.90
55211;DHT22;41082;52.822;6.666;2023-09-19T12:34:27;19.50;99.90
55211;DHT22;41082;52.822;6.666;2023-09-19T12:37:12;19.40;99.90
55211;DHT22;41082;52.822;6.666;2023-09-19T12:39:41;19.30;99.90
55211;DHT22;41082;52.822;6.666;2023-09-19T12:42:11;19.30;99.90
55211;DHT22;41082;52.822;6.666;2023-09-19T12:44:51;19.30;99.90
55211;DHT22;41082;52.822;6.666;2023-09-19T12:47:21;19.30;99.90
55211;DHT22;41082;52.822;6.666;2023-09-19T12:50:14;19.30;99.90
55211;DHT22;41082;52.822;6.666;2023-09-19T12:52:49;19.40;99.90
55211;DHT22;41082;52.822;6.666;2023-09-19T12:55:30;19.30;99.90
55211;DHT22;41082;52.822;6.666;2023-09-19T12:58:09;19.30;99.90
55211;DHT22;41082;52.822;6.666;2023-09-19T13:00:44;19.30;99.90
55211;DHT22;41082;52.822;6.666;2023-09-19T13:03:17;19.30;99.90
55211;DHT22;41082;52.822;6.666;2023-09-19T13:06:03;19.30;99.90
55211;DHT22;41082;52.822;6.666;2023-09-19T13:08:34;19.30;99.90
55211;DHT22;41082;52.822;6.666;2023-09-19T13:13:37;19.20;99.90
55211;DHT22;41082;52.822;6.666;2023-09-19T13:16:03;19.20;99.90
55211;DHT22;41082;52.822;6.666;2023-09-19T13:18:57;19.10;99.90
55211;DHT22;41082;52.822;6.666;2023-09-19T13:21:32;19.10;99.90
55211;DHT22;41082;52.822;6.666;2023-09-19T13:24:24;19.10;99.90
55211;DHT22;41082;52.822;6.666;2023-09-19T13:26:53;19.00;99.90
55211;DHT22;41082;52.822;6.666;2023-09-19T13:29:19;19.00;99.90
55211;DHT22;41082;52.822;6.666;2023-09-19T13:31:48;19.00;99.90
55211;DHT22;41082;52.822;6.666;2023-09-19T13:34:15;18.90;99.90
55211;DHT22;41082;52.822;6.666;2023-09-19T13:36:43;18.90;99.90
55211;DHT22;41082;52.822;6.666;2023-09-19T13:39:08;18.90;99.90
55211;DHT22;41082;52.822;6.666;2023-09-19T13:41:35;18.90;99.90
55211;DHT22;41082;52.822;6.666;2023-09-19T13:44:05;18.80;99.90
55211;DHT22;41082;52.822;6.666;2023-09-19T13:46:31;18.80;99.90
55211;DHT22;41082;52.822;6.666;2023-09-19T13:49:01;18.90;99.90
55211;DHT22;41082;52.822;6.666;2023-09-19T13:51:32;18.80;99.90
55211;DHT22;41082;52.822;6.666;2023-09-19T13:53:58;18.80;99.90
55211;DHT22;41082;52.822;6.666;2023-09-19T13:56:27;18.80;99.90
55211;DHT22;41082;52.822;6.666;2023-09-19T13:58:57;18.80;99.90
55211;DHT22;41082;52.822;6.666;2023-09-19T14:01:23;18.80;99.90
55211;DHT22;41082;52.822;6.666;2023-09-19T14:03:48;18.80;99.90
55211;DHT22;41082;52.822;6.666;2023-09-19T14:06:17;18.80;99.90
55211;DHT22;41082;52.822;6.666;2023-09-19T14:08:44;18.90;99.90
55211;DHT22;41082;52.822;6.666;2023-09-19T14:11:13;19.00;99.90
55211;DHT22;41082;52.822;6.666;2023-09-19T14:13:40;19.10;99.90
55211;DHT22;41082;52.822;6.666;2023-09-19T14:16:06;19.10;99.90
55211;DHT22;41082;52.822;6.666;2023-09-19T14:18:32;19.20;99.90
55211;DHT22;41082;52.822;6.666;2023-09-19T14:21:01;19.20;99.90
55211;DHT22;41082;52.822;6.666;2023-09-19T14:23:28;19.30;99.90
55211;DHT22;41082;52.822;6.666;2023-09-19T14:25:54;19.30;99.90
55211;DHT22;41082;52.822;6.666;2023-09-19T14:28:20;19.30;99.90
55211;DHT22;41082;52.822;6.666;2023-09-19T14:30:45;19.30;99.90
55211;DHT22;41082;52.822;6.666;2023-09-19T14:33:11;19.20;99.90
55211;DHT22;41082;52.822;6.666;2023-09-19T14:35:37;19.20;99.90
55211;DHT22;41082;52.822;6.666;2023-09-19T14:38:04;19.20;99.90
55211;DHT22;41082;52.822;6.666;2023-09-19T14:40:29;19.10;99.90
55211;DHT22;41082;52.822;6.666;2023-09-19T14:42:56;19.10;99.90
55211;DHT22;41082;52.822;6.666;2023-09-19T14:45:22;19.10;99.90
55211;DHT22;41082;52.822;6.666;2023-09-19T14:47:48;19.10;99.90
55211;DHT22;41082;52.822;6.666;2023-09-19T14:50:14;19.10;99.90
55211;DHT22;41082;52.822;6.666;2023-09-19T14:52:41;19.10;99.90
55211;DHT22;41082;52.822;6.666;2023-09-19T14:55:07;19.10;99.90
55211;DHT22;41082;52.822;6.666;2023-09-19T14:57:35;19.10;99.90
55211;DHT22;41082;52.822;6.666;2023-09-19T15:00:03;19.00;99.90
55211;DHT22;41082;52.822;6.666;2023-09-19T15:02:30;19.00;99.90
55211;DHT22;41082;52.822;6.666;2023-09-19T15:04:56;19.00;99.90
55211;DHT22;41082;52.822;6.666;2023-09-19T15:07:22;18.90;99.90
55211;DHT22;41082;52.822;6.666;2023-09-19T15:09:47;18.90;99.90
55211;DHT22;41082;52.822;6.666;2023-09-19T15:12:13;18.90;99.90
55211;DHT22;41082;52.822;6.666;2023-09-19T15:14:40;18.90;99.90
55211;DHT22;41082;52.822;6.666;2023-09-19T15:17:07;18.90;99.90
55211;DHT22;41082;52.822;6.666;2023-09-19T15:19:33;19.00;99.90
55211;DHT22;41082;52.822;6.666;2023-09-19T15:21:58;19.00;99.90
55211;DHT22;41082;52.822;6.666;2023-09-19T15:24:24;19.00;99.90
55211;DHT22;41082;52.822;6.666;2023-09-19T15:26:52;19.00;99.90
55211;DHT22;41082;52.822;6.666;2023-09-19T15:29:18;18.90;99.90
55211;DHT22;41082;52.822;6.666;2023-09-19T15:31:45;18.90;99.90
55211;DHT22;41082;52.822;6.666;2023-09-19T15:34:10;18.90;99.90
55211;DHT22;41082;52.822;6.666;2023-09-19T15:36:39;18.90;99.90
55211;DHT22;41082;52.822;6.666;2023-09-19T15:39:08;18.80;99.90
55211;DHT22;41082;52.822;6.666;2023-09-19T15:41:40;18.80;99.90
55211;DHT22;41082;52.822;6.666;2023-09-19T15:44:16;18.80;99.90
55211;DHT22;41082;52.822;6.666;2023-09-19T15:46:43;18.70;99.90
55211;DHT22;41082;52.822;6.666;2023-09-19T15:49:10;18.70;99.90
55211;DHT22;41082;52.822;6.666;2023-09-19T15:51:35;18.70;99.90
55211;DHT22;41082;52.822;6.666;2023-09-19T15:54:02;18.60;99.90
55211;DHT22;41082;52.822;6.666;2023-09-19T15:56:33;18.70;99.90
55211;DHT22;41082;52.822;6.666;2023-09-19T15:59:00;18.60;99.90
55211;DHT22;41082;52.822;6.666;2023-09-19T16:01:25;18.60;99.90
55211;DHT22;41082;52.822;6.666;2023-09-19T16:03:53;18.60;99.90
55211;DHT22;41082;52.822;6.666;2023-09-19T16:06:23;18.60;99.90
55211;DHT22;41082;52.822;6.666;2023-09-19T16:08:51;18.60;99.90
55211;DHT22;41082;52.822;6.666;2023-09-19T16:11:18;18.50;99.90
55211;DHT22;41082;52.822;6.666;2023-09-19T16:13:45;18.50;99.90
55211;DHT22;41082;52.822;6.666;2023-09-19T16:16:12;18.50;99.90
55211;DHT22;41082;52.822;6.666;2023-09-19T16:18:40;18.50;99.90
55211;DHT22;41082;52.822;6.666;2023-09-19T16:21:08;18.50;99.90
55211;DHT22;41082;52.822;6.666;2023-09-19T16:23:34;18.50;99.90
55211;DHT22;41082;52.822;6.666;2023-09-19T16:26:05;18.50;99.90
55211;DHT22;41082;52.822;6.666;2023-09-19T16:28:35;18.40;99.90
55211;DHT22;41082;52.822;6.666;2023-09-19T16:31:03;18.40;99.90
55211;DHT22;41082;52.822;6.666;2023-09-19T16:33:33;18.40;99.90
55211;DHT22;41082;52.822;6.666;2023-09-19T16:36:00;18.40;99.90
55211;DHT22;41082;52.822;6.666;2023-09-19T16:38:26;18.40;99.90